Pagrindinis puslapis
METAR-TAF:

METAR-TAF

Oro uostai :

Liuksemburgas, Liuksemburgas

platuma: 49-37N, ilguma: 006-13E, Aukštis: 376 m

Dabartinis oras

Ataskaita buvo paskelbta 1 valandą ir 12 minutes, ne 12:50 UTC
Vėjas 9 kt iš Rytų/Pietryčių su gūsio iki 19 kt, svyruoja nuo Rytų/Šiaurės Rytų ir Pietų/Pietryčių
Temperatūra 25°C
Drėgmė 32%
Slėgis 1020 hPa
Matomumas 10 km arba daugiau
nėra debesų žemiau 1500 m ir nėra kamuolinių lietaus debesų

METAR: ELLX 011250Z 12009G19KT 070V160 CAVOK 25/07 Q1020 NOSIG

Laikas: 16:02 (14:02 UTC)

Prognozė

Ataskaita buvo paskelbta 3 valandos ir 2 minutes, ne 11:00 UTC
Prognozė galioja nuo 01 metu 12 UTC su 02 metu 18 UTC
Vėjas 12 kt iš Rytų
Matomumas 10 km arba daugiau
nėra debesų žemiau 1500 m ir nėra kamuolinių lietaus debesų

TAF: ELLX 011100Z 0112/0218 09012KT CAVOK

Orai ataskaitas ir orų prognozės (METAR, TAF).

turimą stotys yra geltonos ir raudonos taškus žemėlapyje.

Perkelti pele per norėdami pamatyti stoties vardą.

Tada spustelėkite, norėdami matyti oro stebėjimo ir prognozės.

Norėdami pakeisti žemėlapį: spustelėkite ant žalios mygtukų su juodo kryžiaus žemyn,; žalią mygtuką su brūkšneliu, jei norite nutolinti; arba žalių rodyklių gretimoms žemėlapius.


METAR-TAF: